»·PEaware :: N695DS KWHP-KCRQ

N695DS :: KWHP-KCRQ

FLIGHT INFORMATION

Flight Status: Arrived
Operator: Privately registered:
United States
More flights under this callsign
Pilot: Christopher S. (2105)
Aircraft: Diamond DA-62
(DA62)
More flights by this aircraft type
Origin: KWHP Whiteman
United States
Destination: KCRQ McClellan-Palomar
United States
More flights between these airports :: More routes between these airports
Route: +WHP1 VNY V186 ROBNN V458 OCN
File this flight plan on PilotEdge
Remarks: TEC route BURP26
Altitude:
(Current/Filed)
7,000ft
Speed:
(Current/Filed)
160kts
Departed: 08-Apr-20 05:04 PM
Arrived: 08-Apr-20 05:55 PM
Distance/Time
Traveled:
88nm/0:51
Distance/Time
To Go:
Arrived

Flight Plot

Page will automatically refresh every two minutes.

Flight plan parsing failed; only flown route is shown


Map Options




Map Legend


Flown Route
Filed Route
Departure Airport
Arrival Airport
Navaid (VOR, NDB)
Fix

Horizontal Profiles

Position Reports

Time Latitude Longitude Heading Altitude Ground
Speed
08-Apr-20 16:48 34.257940 -118.411097 318 982ft 0kts
08-Apr-20 16:49 34.257940 -118.411097 318 982ft 0kts
08-Apr-20 16:50 34.257940 -118.411097 318 982ft 0kts
08-Apr-20 16:51 34.257940 -118.411097 318 982ft 0kts
08-Apr-20 16:52 34.257940 -118.411097 318 982ft 0kts
08-Apr-20 16:53 34.257940 -118.411097 318 982ft 0kts
08-Apr-20 16:54 34.257940 -118.411097 318 982ft 0kts
08-Apr-20 16:55 34.257940 -118.411097 318 982ft 0kts
08-Apr-20 16:56 34.257940 -118.411097 318 982ft 0kts
08-Apr-20 16:57 34.257940 -118.411097 318 982ft 0kts
08-Apr-20 16:58 34.257942 -118.411099 318 982ft 1kts
08-Apr-20 16:59 34.255695 -118.409052 139 971ft 16kts
08-Apr-20 17:00 34.255511 -118.408880 186 970ft 0kts
08-Apr-20 17:01 34.255455 -118.408889 187 970ft 1kts
08-Apr-20 17:02 34.255362 -118.409304 320 970ft 6kts
08-Apr-20 17:03 34.270870 -118.423544 314 1481ft 93kts
08-Apr-20 17:04 34.279404 -118.457957 272 2464ft 117kts
08-Apr-20 17:05 34.283830 -118.498588 271 3451ft 129kts
08-Apr-20 17:06 34.294856 -118.539149 339 4266ft 150kts
08-Apr-20 17:07 34.332889 -118.547439 291 5169ft 142kts
08-Apr-20 17:08 34.309731 -118.559079 145 6038ft 140kts
08-Apr-20 17:09 34.277228 -118.533918 151 6929ft 140kts
08-Apr-20 17:10 34.240359 -118.505010 149 6967ft 169kts
08-Apr-20 17:11 34.214004 -118.459233 104 6967ft 182kts
08-Apr-20 17:12 34.197418 -118.401654 113 6968ft 182kts
08-Apr-20 17:13 34.178996 -118.344734 114 6972ft 182kts
08-Apr-20 17:14 34.161479 -118.287352 113 6972ft 182kts
08-Apr-20 17:15 34.143865 -118.229461 112 6977ft 184kts
08-Apr-20 17:16 34.126060 -118.171178 111 6982ft 186kts
08-Apr-20 17:17 34.108079 -118.112397 110 6987ft 186kts
08-Apr-20 17:18 34.090053 -118.053559 110 6990ft 186kts
08-Apr-20 17:19 34.071951 -117.994630 110 7000ft 186kts
08-Apr-20 17:20 34.053859 -117.935840 111 7003ft 187kts
08-Apr-20 17:21 34.035653 -117.876737 111 7001ft 187kts
08-Apr-20 17:22 34.017394 -117.817558 112 6999ft 187kts
08-Apr-20 17:23 33.998945 -117.758641 114 6998ft 186kts
08-Apr-20 17:24 33.978775 -117.700924 115 6997ft 186kts
08-Apr-20 17:25 33.958528 -117.643416 115 6997ft 185kts
08-Apr-20 17:26 33.938369 -117.586263 116 7000ft 184kts
08-Apr-20 17:27 33.915808 -117.531150 141 7008ft 178kts
08-Apr-20 17:28 33.876323 -117.494925 147 6994ft 177kts
08-Apr-20 17:29 33.835994 -117.460817 147 6993ft 175kts
08-Apr-20 17:30 33.795987 -117.427285 146 6963ft 175kts
08-Apr-20 17:31 33.756227 -117.394037 145 6955ft 172kts
08-Apr-20 17:32 33.717119 -117.361337 145 6954ft 171kts
08-Apr-20 17:33 33.678021 -117.328680 146 6956ft 171kts
08-Apr-20 17:34 33.638994 -117.296142 146 6959ft 171kts
08-Apr-20 17:35 33.599643 -117.263498 146 6961ft 171kts
08-Apr-20 17:36 33.560310 -117.230807 147 6967ft 172kts
08-Apr-20 17:38 33.520728 -117.197942 148 6973ft 174kts
08-Apr-20 17:39 33.480508 -117.164730 154 6970ft 176kts
08-Apr-20 17:40 33.433745 -117.150177 159 6962ft 177kts
08-Apr-20 17:41 33.387917 -117.124622 166 6069ft 176kts
08-Apr-20 17:42 33.343960 -117.101796 157 5378ft 169kts
08-Apr-20 17:43 33.302867 -117.077260 157 4850ft 163kts
08-Apr-20 17:44 33.262324 -117.054707 157 4364ft 159kts
08-Apr-20 17:45 33.224437 -117.031663 157 4270ft 145kts
08-Apr-20 17:46 33.191247 -117.025467 227 4272ft 120kts
08-Apr-20 17:47 33.169430 -117.054741 232 4269ft 116kts
08-Apr-20 17:48 33.158048 -117.091842 257 3584ft 109kts
08-Apr-20 17:49 33.152717 -117.126220 258 2568ft 106kts
08-Apr-20 17:50 33.148381 -117.159213 256 1981ft 91kts
08-Apr-20 17:51 33.144502 -117.187431 253 1892ft 86kts
08-Apr-20 17:52 33.138985 -117.216163 256 1450ft 92kts
08-Apr-20 17:53 33.134253 -117.245082 252 902ft 86kts
08-Apr-20 17:53 33.130366 -117.267213 255 447ft 80kts
08-Apr-20 17:55 33.127051 -117.283203 181 335ft 2kts
08-Apr-20 17:56 33.126668 -117.281981 80 335ft 0kts

Navigation Log

Ident Type
Flight plan parsing failed, navigation log unavailable